Time;durP1;ratioP1;P1;durP2;ratioP2;P2;SDS_P1;SDS_P2;PMS_P1;PMS_P2;Temp;Humidity;BMP_temperature;BMP_pressure;BME280_temperature;BME280_humidity;BME280_pressure;Samples;Min_cycle;Max_cycle;Signal;HPM_P1;HPM_P2
2022/04/12 00:00:26;;;;;;;5.97;4.47;;;9.40;92.30;;;;;;5032267;28;20055;-51
2022/04/12 00:02:52;;;;;;;6.22;4.00;;;9.50;92.30;;;;;;5032212;28;20033;-47
2022/04/12 00:05:18;;;;;;;8.57;4.38;;;9.40;92.40;;;;;;5032405;28;20025;-48
2022/04/12 00:07:44;;;;;;;8.27;4.68;;;9.30;92.60;;;;;;5031867;28;20044;-47
2022/04/12 00:10:11;;;;;;;7.50;4.65;;;9.30;92.80;;;;;;5032264;28;20024;-47
2022/04/12 00:12:40;;;;;;;10.10;4.22;;;9.30;92.80;;;;;;5031868;28;20111;-47
2022/04/12 00:15:08;;;;;;;8.63;4.20;;;9.30;92.80;;;;;;5031740;28;20200;-47
2022/04/12 00:20:20;;;;;;;5.32;3.92;;;9.30;93.00;;;;;;5032092;28;20037;-47
2022/04/12 00:22:46;;;;;;;6.50;4.65;;;9.30;92.90;;;;;;5047155;28;20033;-51
2022/04/12 00:25:12;;;;;;;5.32;4.65;;;9.30;92.90;;;;;;5031367;28;20408;-47
2022/04/12 00:27:39;;;;;;;4.53;4.00;;;9.20;93.10;;;;;;5031485;28;20033;-48
2022/04/12 00:30:07;;;;;;;5.10;3.72;;;9.30;93.10;;;;;;5031591;28;20028;-48
2022/04/12 00:32:33;;;;;;;8.68;5.78;;;9.30;93.20;;;;;;5031570;28;20026;-50
2022/04/12 00:34:59;;;;;;;6.60;3.97;;;9.30;93.20;;;;;;5031306;28;20029;-48
2022/04/12 00:37:25;;;;;;;7.60;4.68;;;9.30;93.30;;;;;;5030204;28;20067;-52
2022/04/12 00:39:51;;;;;;;7.50;4.90;;;9.20;93.30;;;;;;5031462;28;20029;-52
2022/04/12 00:42:16;;;;;;;6.20;4.03;;;9.20;93.80;;;;;;5031680;28;20559;-48
2022/04/12 00:44:42;;;;;;;8.65;4.72;;;9.20;93.60;;;;;;5031293;28;20400;-48
2022/04/12 00:47:07;;;;;;;8.75;4.35;;;9.10;93.90;;;;;;5030989;28;20072;-51
2022/04/12 00:49:33;;;;;;;6.82;4.25;;;9.10;93.80;;;;;;5031294;28;20612;-50
2022/04/12 00:51:58;;;;;;;9.27;4.88;;;9.10;94.00;;;;;;5031358;28;20029;-47
2022/04/12 00:54:25;;;;;;;7.45;5.13;;;9.10;94.10;;;;;;5021027;28;20057;-48
2022/04/12 00:56:52;;;;;;;6.25;3.80;;;9.00;94.20;;;;;;5017427;28;20455;-47
2022/04/12 00:59:19;;;;;;;4.68;3.63;;;9.00;94.30;;;;;;5011633;28;20073;-50
2022/04/12 01:01:44;;;;;;;5.22;4.13;;;9.00;94.60;;;;;;5011417;28;20466;-52
2022/04/12 01:04:10;;;;;;;6.70;4.13;;;8.90;94.70;;;;;;5011216;28;20057;-50
2022/04/12 01:06:37;;;;;;;8.57;5.15;;;9.00;94.70;;;;;;5015049;28;20041;-48
2022/04/12 01:09:05;;;;;;;5.55;4.30;;;8.90;94.90;;;;;;5021410;28;20022;-50
2022/04/12 01:11:32;;;;;;;9.38;4.63;;;8.90;95.10;;;;;;5024590;28;20439;-53
2022/04/12 01:13:57;;;;;;;4.82;4.13;;;8.90;95.00;;;;;;5025660;28;20025;-47
2022/04/12 01:16:23;;;;;;;6.57;4.15;;;8.90;95.10;;;;;;5023817;28;20025;-51
2022/04/12 01:18:48;;;;;;;6.20;3.75;;;8.80;95.30;;;;;;5028716;28;20029;-49
2022/04/12 01:21:14;;;;;;;7.55;4.15;;;8.80;95.50;;;;;;5034977;28;20029;-52
2022/04/12 01:24:03;;;;;;;8.43;4.07;;;8.80;95.60;;;;;;5031007;28;20017;-48
2022/04/12 01:26:29;;;;;;;6.35;4.45;;;8.70;95.80;;;;;;5024768;28;20025;-52
2022/04/12 01:28:55;;;;;;;6.15;4.40;;;8.80;95.80;;;;;;5023469;28;20044;-47
2022/04/12 01:31:20;;;;;;;9.45;4.82;;;8.70;96.00;;;;;;5027255;28;20017;-48
2022/04/12 01:33:46;;;;;;;7.47;4.50;;;8.70;96.10;;;;;;5031649;28;20124;-50
2022/04/12 01:36:11;;;;;;;7.50;4.63;;;8.70;96.30;;;;;;5033763;28;20107;-47
2022/04/12 01:38:37;;;;;;;5.90;4.20;;;8.70;96.30;;;;;;5034176;28;20489;-49
2022/04/12 01:41:02;;;;;;;7.35;3.97;;;8.70;96.40;;;;;;5033265;28;20025;-48
2022/04/12 01:43:29;;;;;;;12.38;4.53;;;8.60;96.50;;;;;;5032593;28;20037;-51
2022/04/12 01:45:54;;;;;;;12.07;4.57;;;8.60;96.60;;;;;;5033916;28;20026;-49
2022/04/12 01:48:20;;;;;;;6.55;3.95;;;8.60;96.90;;;;;;5034096;28;20654;-49
2022/04/12 01:50:46;;;;;;;6.90;5.13;;;8.60;96.90;;;;;;5034359;28;20056;-49
2022/04/12 01:53:11;;;;;;;5.15;3.97;;;8.60;97.00;;;;;;5034338;28;20453;-47
2022/04/12 01:55:37;;;;;;;5.00;4.43;;;8.60;97.10;;;;;;5034099;28;20033;-48
2022/04/12 01:58:03;;;;;;;4.82;4.10;;;8.60;97.10;;;;;;5034348;28;20124;-49
2022/04/12 02:00:29;;;;;;;4.68;4.22;;;8.60;97.20;;;;;;5034575;28;20113;-48
2022/04/12 02:02:55;;;;;;;7.93;4.68;;;8.50;97.30;;;;;;5034422;28;20532;-49
2022/04/12 02:05:21;;;;;;;9.73;4.90;;;8.50;97.50;;;;;;5034019;28;20034;-49
2022/04/12 02:07:46;;;;;;;9.50;4.57;;;8.50;97.60;;;;;;5034101;28;20032;-47
2022/04/12 02:10:13;;;;;;;9.55;5.18;;;8.40;97.80;;;;;;5034092;28;20025;-50
2022/04/12 02:12:39;;;;;;;5.65;4.15;;;8.50;97.90;;;;;;5034087;28;20025;-53
2022/04/12 02:15:05;;;;;;;6.25;4.10;;;8.40;98.00;;;;;;5034053;28;20500;-49
2022/04/12 02:17:30;;;;;;;6.93;4.32;;;8.40;98.10;;;;;;5033311;28;20483;-47
2022/04/12 02:19:56;;;;;;;5.70;4.10;;;8.40;98.30;;;;;;5034066;28;20104;-49
2022/04/12 02:22:22;;;;;;;6.50;4.55;;;8.40;98.20;;;;;;5033974;28;20066;-52
2022/04/12 02:24:47;;;;;;;7.05;5.65;;;8.50;98.20;;;;;;5033795;28;20060;-47
2022/04/12 02:27:13;;;;;;;5.40;4.25;;;8.50;98.40;;;;;;5033724;28;20100;-49
2022/04/12 02:29:38;;;;;;;6.22;4.13;;;8.50;98.10;;;;;;5033851;28;20028;-53
2022/04/12 02:32:04;;;;;;;8.73;4.70;;;8.60;98.10;;;;;;5033659;28;20029;-50
2022/04/12 02:34:30;;;;;;;6.38;4.70;;;8.60;98.20;;;;;;5033434;28;20034;-48
2022/04/12 02:36:55;;;;;;;7.95;4.63;;;8.60;98.20;;;;;;5033688;28;20025;-48
2022/04/12 02:39:21;;;;;;;8.30;4.20;;;8.50;98.40;;;;;;5049052;28;20124;-52
2022/04/12 02:41:48;;;;;;;6.38;4.07;;;8.50;98.40;;;;;;5033583;28;20436;-51
2022/04/12 02:44:14;;;;;;;4.93;4.10;;;8.50;98.40;;;;;;5033298;28;20021;-48
2022/04/12 02:46:39;;;;;;;7.03;4.85;;;8.50;98.40;;;;;;5033425;28;20022;-52
2022/04/12 02:49:05;;;;;;;8.93;4.18;;;8.50;98.50;;;;;;5033386;28;20442;-52
2022/04/12 02:51:30;;;;;;;6.97;4.53;;;8.50;98.60;;;;;;5033456;28;20029;-50
2022/04/12 02:53:56;;;;;;;6.15;4.35;;;8.50;98.70;;;;;;5033247;28;20030;-48
2022/04/12 02:56:21;;;;;;;9.95;4.40;;;8.40;98.80;;;;;;5033245;28;20116;-49
2022/04/12 02:58:47;;;;;;;6.20;4.40;;;8.40;98.90;;;;;;5033195;28;20116;-48
2022/04/12 03:01:12;;;;;;;6.90;4.72;;;8.50;98.90;;;;;;5033938;28;20076;-51
2022/04/12 03:03:38;;;;;;;9.00;4.40;;;8.40;99.00;;;;;;5048441;28;20026;-50
2022/04/12 03:06:03;;;;;;;4.60;4.00;;;8.40;99.20;;;;;;5033421;28;20069;-49
2022/04/12 03:08:29;;;;;;;6.50;4.78;;;8.30;99.30;;;;;;5032820;28;20049;-51
2022/04/12 03:10:54;;;;;;;6.82;4.60;;;8.30;99.50;;;;;;5033180;28;20497;-49
2022/04/12 03:13:20;;;;;;;6.55;4.35;;;8.30;99.60;;;;;;5032850;28;20092;-49
2022/04/12 03:15:45;;;;;;;5.63;4.55;;;8.30;99.70;;;;;;5032892;28;20485;-49
2022/04/12 03:18:11;;;;;;;7.50;4.32;;;8.20;99.60;;;;;;5032572;28;20052;-51
2022/04/12 03:20:37;;;;;;;6.25;4.22;;;8.30;99.60;;;;;;5032868;28;20033;-48
2022/04/12 03:23:02;;;;;;;7.07;5.05;;;8.40;99.50;;;;;;5032555;28;20037;-50
2022/04/12 03:25:28;;;;;;;5.38;4.15;;;8.40;99.60;;;;;;5032773;28;20026;-48
2022/04/12 03:27:53;;;;;;;6.95;5.20;;;8.40;99.60;;;;;;5031749;28;20029;-49
2022/04/12 03:30:19;;;;;;;5.82;4.38;;;8.40;99.70;;;;;;5032753;28;20104;-49
2022/04/12 03:32:44;;;;;;;4.90;3.85;;;8.40;99.80;;;;;;5032708;28;20136;-50
2022/04/12 03:35:10;;;;;;;6.28;4.80;;;8.40;99.70;;;;;;5032379;28;20037;-49
2022/04/12 03:37:36;;;;;;;8.70;4.90;;;8.30;99.80;;;;;;5032192;28;20037;-52
2022/04/12 03:40:02;;;;;;;7.78;5.18;;;8.20;99.90;;;;;;5032314;28;20025;-48
2022/04/12 03:42:28;;;;;;;7.43;5.03;;;8.20;99.90;;;;;;5032190;28;20018;-52
2022/04/12 03:44:53;;;;;;;7.85;5.40;;;8.20;99.90;;;;;;5032074;28;20037;-50
2022/04/12 03:47:19;;;;;;;7.53;5.13;;;8.20;99.90;;;;;;5030960;28;20413;-50
2022/04/12 03:49:45;;;;;;;8.60;4.65;;;8.20;99.90;;;;;;5032318;28;20045;-49
2022/04/12 03:52:10;;;;;;;8.13;4.88;;;8.20;99.90;;;;;;5032330;28;20033;-50
2022/04/12 03:54:36;;;;;;;8.57;4.97;;;8.20;99.90;;;;;;5031941;28;20026;-50
2022/04/12 03:57:02;;;;;;;6.55;5.07;;;8.20;99.90;;;;;;5031923;28;20068;-50
2022/04/12 03:59:28;;;;;;;8.15;4.63;;;8.20;99.90;;;;;;5032083;28;20091;-48
2022/04/12 04:01:53;;;;;;;9.85;5.15;;;8.20;99.90;;;;;;5031931;28;20088;-48
2022/04/12 04:04:19;;;;;;;6.05;4.63;;;8.20;99.90;;;;;;5031575;28;20025;-51
2022/04/12 04:06:45;;;;;;;5.72;4.80;;;8.30;99.90;;;;;;5031621;28;20032;-48
2022/04/12 04:09:10;;;;;;;8.57;5.15;;;8.30;99.90;;;;;;5031776;28;20109;-47
2022/04/12 04:11:39;;;;;;;5.38;4.57;;;8.30;99.90;;;;;;5031825;28;20417;-49
2022/04/12 04:14:05;;;;;;;7.68;5.25;;;8.20;99.90;;;;;;5031779;28;20079;-52
2022/04/12 04:16:31;;;;;;;6.82;5.22;;;8.20;99.90;;;;;;5031771;28;20033;-51
2022/04/12 04:18:56;;;;;;;6.55;4.82;;;8.30;99.90;;;;;;5031684;28;20018;-51
2022/04/12 04:21:22;;;;;;;6.97;5.45;;;8.30;99.90;;;;;;5031796;28;20025;-48
2022/04/12 04:23:47;;;;;;;10.85;5.55;;;8.30;99.90;;;;;;5031668;28;20048;-50
2022/04/12 04:26:13;;;;;;;5.43;4.15;;;8.30;99.90;;;;;;5031543;28;20030;-51
2022/04/12 04:28:41;;;;;;;6.85;4.88;;;8.20;99.90;;;;;;5031521;28;20496;-49
2022/04/12 04:31:07;;;;;;;8.65;5.25;;;8.20;99.90;;;;;;5031785;28;20026;-48
2022/04/12 04:33:33;;;;;;;6.68;5.10;;;8.10;99.90;;;;;;5031637;28;20018;-48
2022/04/12 04:35:59;;;;;;;6.72;4.35;;;8.00;99.90;;;;;;5032858;28;20045;-48
2022/04/12 04:38:24;;;;;;;5.95;4.53;;;8.10;99.90;;;;;;5031000;28;20034;-50
2022/04/12 04:40:50;;;;;;;5.68;4.60;;;8.10;99.90;;;;;;5031522;28;20039;-49
2022/04/12 04:43:16;;;;;;;5.82;5.10;;;8.00;99.90;;;;;;5031407;28;20033;-50
2022/04/12 04:45:45;;;;;;;14.07;6.05;;;7.90;99.90;;;;;;5030864;28;20496;-49
2022/04/12 04:48:11;;;;;;;11.38;7.13;;;7.90;99.90;;;;;;5031202;28;20056;-49
2022/04/12 04:50:37;;;;;;;9.77;5.45;;;8.00;99.90;;;;;;5030186;28;20025;-52
2022/04/12 04:53:06;;;;;;;7.38;5.30;;;8.00;99.90;;;;;;5031403;28;20408;-50
2022/04/12 04:55:35;;;;;;;6.57;4.65;;;7.90;99.90;;;;;;5031072;28;20068;-48
2022/04/12 04:58:00;;;;;;;7.47;5.47;;;8.00;99.90;;;;;;5031027;28;20488;-48
2022/04/12 05:00:29;;;;;;;6.00;5.15;;;8.00;99.90;;;;;;5031349;28;20032;-48
2022/04/12 05:02:56;;;;;;;9.10;5.45;;;8.00;99.90;;;;;;5031204;28;20025;-51
2022/04/12 05:05:22;;;;;;;7.95;5.50;;;8.00;99.90;;;;;;5030978;28;20060;-49
2022/04/12 05:07:49;;;;;;;9.13;4.95;;;8.00;99.90;;;;;;5030857;28;20025;-51
2022/04/12 05:10:20;;;;;;;7.35;5.00;;;8.10;99.90;;;;;;5029885;28;20032;-51
2022/04/12 05:12:46;;;;;;;9.10;5.68;;;8.00;99.90;;;;;;5031213;28;20025;-52
2022/04/12 05:15:12;;;;;;;14.18;5.13;;;8.10;99.90;;;;;;5030904;28;20358;-50
2022/04/12 05:17:37;;;;;;;6.60;5.07;;;8.10;99.90;;;;;;5030845;28;20025;-47
2022/04/12 05:20:09;;;;;;;5.47;4.47;;;8.10;99.90;;;;;;5031153;28;20435;-48
2022/04/12 05:22:35;;;;;;;7.22;5.05;;;8.10;99.90;;;;;;5029634;28;20056;-52
2022/04/12 05:25:00;;;;;;;7.70;5.38;;;8.00;99.90;;;;;;5030806;28;20652;-48
2022/04/12 05:27:34;;;;;;;6.97;4.68;;;8.10;99.90;;;;;;5030916;28;20029;-48
2022/04/12 05:30:04;;;;;;;7.18;5.22;;;8.10;99.90;;;;;;5031004;28;20543;-47
2022/04/12 05:32:29;;;;;;;6.18;5.10;;;8.20;99.90;;;;;;5031174;28;20048;-48
2022/04/12 05:34:55;;;;;;;8.25;4.63;;;8.20;99.90;;;;;;5030466;28;20033;-48
2022/04/12 05:37:21;;;;;;;9.90;5.20;;;8.20;99.90;;;;;;5030717;28;20400;-49
2022/04/12 05:39:46;;;;;;;7.22;5.80;;;8.30;99.90;;;;;;5030973;28;20029;-49
2022/04/12 05:42:12;;;;;;;7.68;5.40;;;8.30;99.90;;;;;;5033781;28;20473;-45
2022/04/12 05:44:37;;;;;;;8.82;5.93;;;8.30;99.90;;;;;;5030308;28;20056;-48
2022/04/12 05:47:03;;;;;;;8.93;4.75;;;8.40;99.90;;;;;;5029827;28;20056;-47
2022/04/12 05:49:29;;;;;;;10.60;5.93;;;8.40;99.90;;;;;;5030392;28;20480;-46
2022/04/12 05:51:55;;;;;;;7.35;5.45;;;8.30;99.90;;;;;;5032523;28;20100;-44
2022/04/12 05:54:22;;;;;;;7.07;5.35;;;8.40;99.90;;;;;;5049266;28;20029;-47
2022/04/12 05:56:48;;;;;;;8.05;5.32;;;8.50;99.90;;;;;;5033993;28;20025;-46
2022/04/12 05:59:13;;;;;;;12.70;5.93;;;8.80;99.90;;;;;;5034223;28;20366;-49
2022/04/12 06:01:39;;;;;;;6.88;5.15;;;9.20;99.90;;;;;;5034329;28;20057;-46
2022/04/12 06:04:05;;;;;;;9.65;4.97;;;9.50;99.60;;;;;;5034029;28;20033;-45
2022/04/12 06:06:32;;;;;;;7.80;4.65;;;10.00;99.30;;;;;;5033525;28;20029;-49
2022/04/12 06:08:58;;;;;;;6.85;4.80;;;10.50;97.80;;;;;;5033616;28;20025;-49
2022/04/12 06:11:24;;;;;;;7.15;4.63;;;11.00;97.20;;;;;;5034134;28;20018;-48
2022/04/12 06:13:49;;;;;;;6.43;5.32;;;11.10;96.10;;;;;;5033913;28;20404;-47
2022/04/12 06:16:15;;;;;;;8.07;5.22;;;11.30;96.20;;;;;;5034157;28;20100;-47
2022/04/12 06:18:40;;;;;;;6.78;4.75;;;11.40;96.10;;;;;;5033093;28;20037;-48
2022/04/12 06:21:06;;;;;;;7.78;5.50;;;11.70;95.30;;;;;;5033801;28;20033;-48
2022/04/12 06:23:31;;;;;;;7.57;5.38;;;11.70;94.90;;;;;;5034146;28;20033;-48
2022/04/12 06:25:57;;;;;;;8.13;5.55;;;11.70;94.50;;;;;;5033985;28;20026;-50
2022/04/12 06:28:22;;;;;;;8.38;4.90;;;11.50;95.10;;;;;;5033035;28;20025;-48
2022/04/12 06:30:48;;;;;;;9.45;5.20;;;11.40;95.30;;;;;;5033582;28;20470;-48
2022/04/12 06:33:14;;;;;;;5.50;4.68;;;11.40;95.50;;;;;;5033543;28;20024;-49
2022/04/12 06:35:40;;;;;;;9.00;5.38;;;11.60;95.10;;;;;;5033360;28;20041;-50
2022/04/12 06:38:05;;;;;;;7.85;4.93;;;12.00;94.90;;;;;;5032907;28;20033;-50
2022/04/12 06:40:31;;;;;;;7.38;4.85;;;12.60;93.80;;;;;;5033591;28;20033;-48
2022/04/12 06:42:56;;;;;;;10.05;4.88;;;12.70;93.00;;;;;;5033533;28;20053;-48
2022/04/12 06:45:22;;;;;;;8.00;5.45;;;13.00;92.80;;;;;;5033290;28;20026;-47
2022/04/12 06:47:56;;;;;;;10.30;5.70;;;12.90;92.70;;;;;;5033278;28;20261;-49
2022/04/12 06:50:22;;;;;;;8.82;5.35;;;12.70;92.90;;;;;;5033472;28;20105;-46
2022/04/12 06:52:47;;;;;;;7.20;5.50;;;12.50;93.40;;;;;;5033698;28;20552;-47
2022/04/12 06:55:13;;;;;;;12.88;4.78;;;12.20;93.70;;;;;;5033892;28;20087;-47
2022/04/12 06:57:39;;;;;;;7.15;5.32;;;12.30;93.60;;;;;;5048643;28;20030;-51
2022/04/12 07:00:07;;;;;;;8.02;5.22;;;12.40;93.60;;;;;;5033524;28;20028;-47
2022/04/12 07:02:33;;;;;;;9.02;5.75;;;12.50;93.40;;;;;;5032063;28;20489;-48
2022/04/12 07:04:58;;;;;;;6.93;4.55;;;12.90;93.30;;;;;;5033201;28;20080;-50
2022/04/12 07:07:24;;;;;;;8.20;5.55;;;13.40;93.00;;;;;;5033086;28;20021;-50
2022/04/12 07:09:50;;;;;;;6.72;5.50;;;13.70;91.90;;;;;;5033365;28;20044;-47
2022/04/12 07:12:15;;;;;;;7.90;5.32;;;14.30;91.10;;;;;;5033238;28;20018;-48
2022/04/12 07:14:41;;;;;;;6.43;4.60;;;14.50;90.90;;;;;;5033111;28;20507;-47
2022/04/12 07:17:06;;;;;;;14.10;5.75;;;14.70;90.30;;;;;;5032645;28;20029;-50
2022/04/12 07:19:32;;;;;;;6.60;4.72;;;14.70;89.20;;;;;;5033337;28;20112;-48
2022/04/12 07:21:58;;;;;;;7.20;5.35;;;14.70;88.90;;;;;;5033305;28;20057;-48
2022/04/12 07:24:23;;;;;;;4.53;4.03;;;14.50;89.20;;;;;;5033007;28;20026;-51
2022/04/12 07:26:49;;;;;;;8.98;5.28;;;14.60;89.30;;;;;;5033084;28;20422;-48
2022/04/12 07:29:14;;;;;;;7.75;4.57;;;14.80;89.00;;;;;;5032928;28;20111;-47
2022/04/12 07:31:41;;;;;;;7.65;4.80;;;14.90;88.00;;;;;;5033272;28;20032;-50
2022/04/12 07:34:07;;;;;;;6.80;5.28;;;14.90;88.00;;;;;;5033074;28;20388;-47
2022/04/12 07:36:33;;;;;;;10.82;5.28;;;15.00;88.40;;;;;;5032866;28;20040;-52
2022/04/12 07:38:58;;;;;;;5.68;4.32;;;15.40;86.60;;;;;;5032493;28;20451;-49
2022/04/12 07:41:24;;;;;;;7.93;5.15;;;15.50;86.10;;;;;;5032509;28;20159;-47
2022/04/12 07:43:52;;;;;;;9.63;5.47;;;15.50;85.80;;;;;;5031997;28;20040;-47
2022/04/12 07:46:17;;;;;;;6.35;4.95;;;16.00;84.10;;;;;;5012605;28;20108;-49
2022/04/12 07:48:43;;;;;;;5.32;4.75;;;16.10;83.40;;;;;;5025343;28;20442;-50
2022/04/12 07:51:09;;;;;;;7.63;5.32;;;16.60;82.60;;;;;;5031965;28;20497;-49
2022/04/12 07:53:35;;;;;;;7.80;4.35;;;17.40;80.30;;;;;;5031831;28;20032;-49
2022/04/12 07:56:00;;;;;;;9.15;5.20;;;17.80;78.60;;;;;;5032053;28;20035;-47
2022/04/12 07:58:26;;;;;;;8.85;4.93;;;18.20;77.00;;;;;;5031626;28;20033;-49
2022/04/12 08:00:51;;;;;;;7.53;4.53;;;18.30;75.40;;;;;;5032279;28;20029;-50
2022/04/12 08:03:20;;;;;;;5.30;4.20;;;18.70;73.20;;;;;;5032221;28;20021;-53
2022/04/12 08:05:49;;;;;;;5.47;4.50;;;19.10;73.20;;;;;;5032138;28;20500;-53
2022/04/12 08:08:15;;;;;;;4.47;4.07;;;19.60;72.30;;;;;;5031767;28;20392;-47
2022/04/12 08:10:40;;;;;;;6.53;4.95;;;20.00;69.30;;;;;;5031484;28;20038;-51
2022/04/12 08:13:06;;;;;;;5.78;4.40;;;20.60;67.70;;;;;;5032096;28;20021;-51
2022/04/12 08:15:31;;;;;;;6.50;4.80;;;19.80;67.80;;;;;;5030775;28;20025;-52
2022/04/12 08:17:57;;;;;;;8.15;4.32;;;20.00;68.80;;;;;;5031642;28;20040;-51
2022/04/12 08:20:22;;;;;;;5.43;3.78;;;20.40;67.20;;;;;;5031930;28;20041;-52
2022/04/12 08:22:49;;;;;;;6.95;5.40;;;20.90;64.90;;;;;;5030241;28;20116;-52
2022/04/12 08:25:15;;;;;;;10.25;4.97;;;20.20;65.20;;;;;;5031587;28;20029;-51
2022/04/12 08:27:40;;;;;;;5.38;4.55;;;19.70;66.40;;;;;;5029815;28;20515;-52
2022/04/12 08:30:07;;;;;;;5.95;4.03;;;19.30;67.80;;;;;;5031463;28;20702;-50
2022/04/12 08:32:34;;;;;;;6.97;4.25;;;19.20;67.20;;;;;;5031860;28;20022;-50
2022/04/12 08:34:59;;;;;;;6.78;4.63;;;19.30;67.50;;;;;;5031175;28;20041;-48
2022/04/12 08:37:25;;;;;;;44.42;29.58;;;19.60;67.30;;;;;;5031323;28;20083;-53
2022/04/12 08:39:51;;;;;;;11.40;7.10;;;20.20;68.00;;;;;;5031713;28;20393;-48
2022/04/12 08:42:17;;;;;;;8.43;4.55;;;20.30;65.10;;;;;;5031822;28;20033;-48
2022/04/12 08:44:46;;;;;;;7.20;4.30;;;20.70;63.90;;;;;;5031212;28;20085;-50
2022/04/12 08:47:15;;;;;;;9.30;5.03;;;20.20;64.60;;;;;;5031106;28;20366;-50
2022/04/12 08:49:41;;;;;;;12.05;4.47;;;19.90;65.50;;;;;;5032051;28;20028;-50
2022/04/12 08:52:11;;;;;;;10.10;4.13;;;19.60;65.30;;;;;;5032275;28;20037;-47
2022/04/12 08:54:40;;;;;;;7.35;5.15;;;19.60;66.60;;;;;;5031620;28;20036;-47
2022/04/12 08:57:07;;;;;;;6.57;4.60;;;19.60;66.20;;;;;;5031195;28;20029;-48
2022/04/12 08:59:33;;;;;;;6.97;4.85;;;19.70;65.40;;;;;;5031734;28;20489;-48
2022/04/12 09:01:59;;;;;;;8.02;4.72;;;19.70;66.00;;;;;;5031787;28;20065;-50
2022/04/12 09:04:26;;;;;;;6.88;4.32;;;19.60;66.10;;;;;;5031139;28;20485;-50
2022/04/12 09:06:57;;;;;;;5.57;4.15;;;20.00;65.40;;;;;;5031285;28;20021;-48
2022/04/12 09:09:27;;;;;;;5.78;4.20;;;20.20;65.20;;;;;;5030699;28;20147;-49
2022/04/12 09:11:57;;;;;;;7.45;4.75;;;20.10;66.20;;;;;;5031463;28;20565;-51
2022/04/12 09:14:23;;;;;;;5.28;4.22;;;20.10;64.60;;;;;;5031052;28;22548;-52
2022/04/12 09:16:51;;;;;;;8.68;4.38;;;20.20;65.20;;;;;;5030951;28;20362;-51
2022/04/12 09:19:44;;;;;;;16.15;10.05;;;19.90;65.20;;;;;;5030433;28;20053;-47
2022/04/12 09:22:11;;;;;;;49.80;33.38;;;19.50;66.90;;;;;;5030529;28;20100;-51
2022/04/12 09:24:42;;;;;;;7.28;5.18;;;19.40;67.20;;;;;;5029383;28;20056;-46
2022/04/12 09:27:12;;;;;;;6.18;4.30;;;19.30;66.50;;;;;;5033681;28;20025;-48
2022/04/12 09:29:44;;;;;;;8.02;4.65;;;19.00;67.90;;;;;;5034939;28;20022;-49
2022/04/12 09:32:13;;;;;;;7.30;4.78;;;19.00;67.50;;;;;;5034669;28;20026;-49
2022/04/12 09:34:39;;;;;;;5.88;4.07;;;19.00;67.60;;;;;;5033732;28;20029;-47
2022/04/12 09:37:22;;;;;;;9.88;4.55;;;18.60;67.20;;;;;;5034592;28;20036;-47
2022/04/12 09:39:53;;;;;;;5.22;4.05;;;18.70;68.30;;;;;;5032690;28;20489;-50
2022/04/12 09:42:39;;;;;;;6.95;4.15;;;18.90;67.40;;;;;;5032945;28;20036;-48
2022/04/12 09:45:07;;;;;;;8.40;4.13;;;18.80;68.70;;;;;;5033574;28;20105;-45
2022/04/12 09:47:33;;;;;;;10.02;4.72;;;19.10;67.60;;;;;;5034597;28;20026;-51
2022/04/12 09:50:02;;;;;;;6.07;4.18;;;19.20;67.30;;;;;;5035111;28;20071;-50
2022/04/12 09:52:28;;;;;;;4.72;4.15;;;18.90;67.20;;;;;;5035631;28;20025;-50
2022/04/12 09:54:57;;;;;;;5.53;4.32;;;18.60;67.30;;;;;;5050515;28;20503;-51
2022/04/12 09:57:24;;;;;;;4.70;3.92;;;18.50;68.70;;;;;;5034719;28;20029;-49
2022/04/12 09:59:55;;;;;;;7.25;4.38;;;18.90;68.50;;;;;;5035490;28;20017;-46
2022/04/12 10:02:22;;;;;;;7.72;4.43;;;18.90;67.90;;;;;;5035802;28;20192;-45
2022/04/12 10:04:50;;;;;;;5.55;4.65;;;19.00;67.80;;;;;;5034223;28;20057;-44
2022/04/12 10:07:18;;;;;;;7.95;4.20;;;19.20;68.40;;;;;;5034448;28;20101;-46
2022/04/12 10:09:47;;;;;;;6.85;3.95;;;19.20;67.80;;;;;;5033297;28;20052;-43
2022/04/12 10:12:12;;;;;;;5.80;3.78;;;19.20;67.20;;;;;;5033041;28;20052;-47
2022/04/12 10:14:38;;;;;;;23.50;15.85;;;19.40;68.40;;;;;;5034000;28;20037;-46
2022/04/12 10:17:04;;;;;;;37.92;25.55;;;19.50;67.80;;;;;;5033043;28;20622;-53
2022/04/12 10:19:30;;;;;;;11.55;8.23;;;19.30;68.90;;;;;;5032996;28;20396;-49
2022/04/12 10:21:56;;;;;;;8.55;4.28;;;19.50;69.40;;;;;;5034100;28;20033;-48
2022/04/12 10:24:23;;;;;;;4.93;3.70;;;19.60;69.30;;;;;;5033585;28;20029;-45
2022/04/12 10:26:50;;;;;;;7.43;3.90;;;19.40;68.20;;;;;;5033689;28;20030;-50
2022/04/12 10:29:15;;;;;;;9.10;4.43;;;19.20;68.60;;;;;;5033850;28;20037;-45
2022/04/12 10:31:55;;;;;;;11.23;4.35;;;19.10;69.20;;;;;;5032648;28;20072;-47
2022/04/12 10:34:21;;;;;;;4.28;3.80;;;19.10;68.90;;;;;;5032211;28;20416;-48
2022/04/12 10:36:58;;;;;;;9.23;4.85;;;19.20;69.10;;;;;;5065980;23;20051;-51
2022/04/12 10:39:32;;;;;;;7.13;4.07;;;19.30;68.80;;;;;;5053738;28;20021;-52
2022/04/12 10:41:59;;;;;;;8.15;3.83;;;19.40;68.60;;;;;;5053387;28;20021;-53
2022/04/12 10:44:25;;;;;;;4.70;4.18;;;19.20;68.30;;;;;;5053431;28;20493;-56
2022/04/12 10:46:51;;;;;;;6.65;3.85;;;19.10;69.00;;;;;;5046664;28;20025;-53
2022/04/12 10:49:19;;;;;;;6.28;4.22;;;18.90;69.50;;;;;;5053696;28;20307;-53
2022/04/12 10:51:46;;;;;;;9.15;3.50;;;19.00;70.60;;;;;;5052143;28;20493;-52
2022/04/12 10:54:30;;;;;;;4.80;3.58;;;19.00;69.70;;;;;;5053077;28;20013;-57
2022/04/12 10:57:17;;;;;;;6.07;3.30;;;19.20;70.00;;;;;;5052836;28;20032;-55
2022/04/12 10:59:52;;;;;;;8.48;3.63;;;19.20;69.50;;;;;;5053242;28;20028;-55
2022/04/12 11:02:18;;;;;;;;;;;19.10;69.20;;;;;;5053744;28;20040;-54
2022/04/12 11:04:43;;;;;;;5.63;2.97;;;19.10;70.80;;;;;;5053072;28;19909;-55
2022/04/12 11:07:26;;;;;;;4.47;3.00;;;19.20;70.40;;;;;;5053118;28;20079;-53
2022/04/12 11:10:13;;;;;;;3.17;2.10;;;19.20;69.00;;;;;;5053072;28;20025;-52
2022/04/12 11:12:43;;;;;;;3.90;3.03;;;19.30;68.60;;;;;;5053003;28;20028;-56
2022/04/12 11:15:29;;;;;;;3.00;2.38;;;19.30;69.60;;;;;;5052712;28;20381;-54
2022/04/12 11:18:15;;;;;;;4.75;2.75;;;19.40;69.90;;;;;;5052406;28;20033;-53
2022/04/12 11:20:43;;;;;;;3.78;2.45;;;19.40;70.10;;;;;;5051326;28;20035;-51
2022/04/12 11:23:12;;;;;;;3.70;2.50;;;19.60;69.90;;;;;;5052632;28;20076;-51
2022/04/12 11:25:51;;;;;;;3.83;2.42;;;19.80;68.10;;;;;;5052753;28;20052;-52
2022/04/12 11:28:24;;;;;;;2.30;2.03;;;19.80;68.60;;;;;;5034720;28;20021;-50
2022/04/12 11:30:58;;;;;;;3.30;2.50;;;19.90;69.30;;;;;;5052979;28;20059;-54
2022/04/12 11:33:25;;;;;;;3.05;2.30;;;20.00;68.80;;;;;;5052508;28;20025;-54
2022/04/12 11:35:51;;;;;;;2.08;1.80;;;20.10;68.40;;;;;;5052500;28;20040;-50
2022/04/12 11:38:21;;;;;;;3.33;1.65;;;20.30;68.20;;;;;;5052319;28;20052;-51
2022/04/12 11:40:47;;;;;;;6.43;2.38;;;20.20;68.10;;;;;;5052799;28;20025;-52
2022/04/12 11:43:25;;;;;;;3.55;2.65;;;20.30;68.00;;;;;;5052727;28;20033;-52
2022/04/12 11:45:53;;;;;;;5.53;2.53;;;20.40;67.40;;;;;;5052681;28;20029;-50
2022/04/12 11:48:19;;;;;;;4.68;2.53;;;20.50;67.60;;;;;;5051888;28;20052;-52
2022/04/12 11:50:55;;;;;;;3.40;1.95;;;20.50;67.00;;;;;;5050829;28;20021;-50
2022/04/12 11:53:22;;;;;;;6.07;2.20;;;20.50;68.00;;;;;;5051840;28;20104;-50
2022/04/12 11:55:48;;;;;;;2.47;1.50;;;20.60;67.60;;;;;;5051902;28;20029;-53
2022/04/12 11:58:15;;;;;;;2.67;1.90;;;20.80;67.80;;;;;;5050340;28;20031;-51
2022/04/12 12:00:41;;;;;;;2.10;1.70;;;20.90;66.50;;;;;;5052021;28;20411;-51
2022/04/12 12:03:17;;;;;;;5.38;1.50;;;21.00;66.10;;;;;;5051768;28;20071;-54
2022/04/12 12:05:43;;;;;;;3.53;1.60;;;21.00;66.70;;;;;;5051826;28;20104;-52
2022/04/12 12:08:10;;;;;;;3.78;1.77;;;21.00;66.90;;;;;;5051625;28;20104;-53
2022/04/12 12:10:36;;;;;;;2.33;1.83;;;21.10;66.00;;;;;;5051835;28;20206;-50
2022/04/12 12:13:05;;;;;;;2.85;2.03;;;21.20;66.60;;;;;;5050126;28;20028;-51
2022/04/12 12:15:31;;;;;;;2.03;1.55;;;21.30;66.10;;;;;;5051739;28;20021;-50
2022/04/12 12:18:05;;;;;;;3.28;2.00;;;21.40;65.60;;;;;;5050229;28;20025;-55
2022/04/12 12:20:32;;;;;;;7.22;2.35;;;21.50;66.20;;;;;;5051716;28;20101;-52
2022/04/12 12:23:03;;;;;;;3.35;1.77;;;21.50;65.60;;;;;;5051523;28;20025;-52
2022/04/12 12:25:51;;;;;;;3.53;1.85;;;21.50;66.10;;;;;;5051584;28;20096;-52
2022/04/12 12:28:23;;;;;;;4.70;1.70;;;21.60;66.10;;;;;;5039543;28;20120;-49
2022/04/12 12:30:58;;;;;;;2.88;1.90;;;21.70;65.90;;;;;;5051520;28;20491;-50
2022/04/12 12:33:24;;;;;;;1.33;1.17;;;21.70;65.30;;;;;;5051549;28;20518;-49
2022/04/12 12:35:51;;;;;;;5.47;1.90;;;21.70;66.60;;;;;;5051318;28;20431;-48
2022/04/12 12:38:21;;;;;;;5.57;2.47;;;21.80;67.50;;;;;;5051142;28;20108;-52
2022/04/12 12:40:46;;;;;;;2.88;2.08;;;21.90;67.80;;;;;;5049978;28;20040;-51
2022/04/12 12:43:14;;;;;;;5.10;2.10;;;22.00;67.30;;;;;;5051226;28;20017;-52
2022/04/12 12:45:45;;;;;;;35.03;26.02;;;22.20;66.40;;;;;;5051059;28;20029;-53
2022/04/12 12:48:15;;;;;;;5.05;2.88;;;22.20;67.80;;;;;;5051140;28;20045;-49
2022/04/12 12:50:42;;;;;;;4.22;2.08;;;22.30;68.20;;;;;;5051411;28;20097;-52
2022/04/12 12:53:10;;;;;;;5.90;2.40;;;22.30;66.70;;;;;;5051475;28;20023;-51